createdAt,value
2023-04-19T00:00:32.411Z,96154.00
2023-04-19T00:01:32.457Z,96152.00
2023-04-19T00:02:32.610Z,96156.00
2023-04-19T00:03:32.798Z,96152.00
2023-04-19T00:04:32.759Z,96152.00
2023-04-19T00:05:31.768Z,96150.00
2023-04-19T00:06:31.765Z,96152.00
2023-04-19T00:07:31.822Z,96150.00
2023-04-19T00:08:32.869Z,96148.00
2023-04-19T00:09:31.915Z,96148.00
2023-04-19T00:10:31.987Z,96148.00
2023-04-19T00:11:33.036Z,96146.00
2023-04-19T00:12:33.131Z,96144.00
2023-04-19T00:13:33.146Z,96144.00
2023-04-19T00:14:33.221Z,96142.00
2023-04-19T00:15:33.262Z,96144.00
2023-04-19T00:16:32.363Z,96142.00
2023-04-19T00:17:32.420Z,96144.00
2023-04-19T00:18:33.455Z,96141.00
2023-04-19T00:19:33.500Z,96144.00
2023-04-19T00:20:32.563Z,96144.00
2023-04-19T00:21:33.595Z,96141.00
2023-04-19T00:22:33.746Z,96142.00
2023-04-19T00:23:33.743Z,96142.00
2023-04-19T00:24:33.780Z,96142.00
2023-04-19T00:25:33.828Z,96144.00
2023-04-19T00:26:33.889Z,96146.00
2023-04-19T00:27:33.951Z,96142.00
2023-04-19T00:28:33.995Z,96142.00
2023-04-19T00:29:34.069Z,96142.00
2023-04-19T00:30:34.123Z,96141.00
2023-04-19T00:31:34.162Z,96139.00
2023-04-19T00:32:34.240Z,96139.00
2023-04-19T00:33:33.294Z,96137.00
2023-04-19T00:34:34.364Z,96137.00
2023-04-19T00:35:33.398Z,96137.00
2023-04-19T00:36:34.439Z,96135.00
2023-04-19T00:37:34.514Z,96137.00
2023-04-19T00:38:33.562Z,96135.00
2023-04-19T00:39:33.719Z,96135.00
2023-04-19T00:40:34.681Z,96133.00
2023-04-19T00:41:33.765Z,96133.00
2023-04-19T00:42:34.785Z,96135.00
2023-04-19T00:43:34.874Z,96129.00
2023-04-19T00:44:34.914Z,96131.00
2023-04-19T00:45:35.003Z,96131.00
2023-04-19T00:46:34.116Z,96131.00
2023-04-19T00:47:35.122Z,96129.00
2023-04-19T00:48:35.152Z,96129.00
2023-04-19T00:49:35.212Z,96127.00
2023-04-19T00:50:35.290Z,96127.00
2023-04-19T00:51:35.331Z,96125.00
2023-04-19T00:52:35.382Z,96123.00
2023-04-19T00:53:35.453Z,96125.00
2023-04-19T00:54:35.482Z,96123.00
2023-04-19T00:55:35.576Z,96123.00
2023-04-19T00:56:34.608Z,96123.00
2023-04-19T00:57:34.742Z,96123.00
2023-04-19T00:58:34.723Z,96123.00
2023-04-19T00:59:35.777Z,96121.00
2023-04-19T01:00:34.837Z,96119.00
2023-04-19T01:01:35.931Z,96119.00
2023-04-19T01:02:36.044Z,96117.00
2023-04-19T01:03:35.285Z,96115.00
2023-04-19T01:04:35.161Z,96115.00
2023-04-19T01:05:36.109Z,96113.00
2023-04-19T01:06:35.169Z,96113.00
2023-04-19T01:07:35.252Z,96111.00
2023-04-19T01:08:35.279Z,96115.00
2023-04-19T01:09:36.323Z,96113.00
2023-04-19T01:10:35.391Z,96113.00
2023-04-19T01:11:35.473Z,96111.00
2023-04-19T01:12:36.491Z,96109.00
2023-04-19T01:13:35.546Z,96111.00
2023-04-19T01:14:35.624Z,96107.00
2023-04-19T01:15:35.689Z,96107.00
2023-04-19T01:16:36.719Z,96105.00
2023-04-19T01:17:35.823Z,96101.00
2023-04-19T01:18:35.832Z,96101.00
2023-04-19T01:19:36.899Z,96101.00
2023-04-19T01:20:35.948Z,96101.00
2023-04-19T01:21:37.002Z,96101.00
2023-04-19T01:22:37.060Z,96097.00
2023-04-19T01:23:37.162Z,96097.00
2023-04-19T01:24:37.189Z,96095.00
2023-04-19T01:25:37.222Z,96095.00
2023-04-19T01:26:37.297Z,96095.00
2023-04-19T01:27:37.336Z,96094.00
2023-04-19T01:28:37.374Z,96094.00
2023-04-19T01:29:36.448Z,96094.00
2023-04-19T01:30:37.510Z,96095.00
2023-04-19T01:31:37.652Z,96094.00
2023-04-19T01:32:37.767Z,96094.00
2023-04-19T01:33:36.685Z,96092.00
2023-04-19T01:34:36.756Z,96090.00
2023-04-19T01:35:37.856Z,96094.00
2023-04-19T01:36:37.904Z,96094.00
2023-04-19T01:37:36.937Z,96090.00
2023-04-19T01:38:36.996Z,96092.00
2023-04-19T01:39:38.054Z,96092.00
2023-04-19T01:40:38.114Z,96092.00
2023-04-19T01:41:37.169Z,96092.00
2023-04-19T01:42:37.222Z,96090.00
2023-04-19T01:43:38.264Z,96092.00
2023-04-19T01:44:38.314Z,96086.00
2023-04-19T01:45:38.391Z,96092.00
2023-04-19T01:46:38.453Z,96092.00
2023-04-19T01:47:38.504Z,96092.00
2023-04-19T01:48:38.562Z,96092.00
2023-04-19T01:49:37.593Z,96086.00
2023-04-19T01:50:37.679Z,96084.00
2023-04-19T01:51:37.742Z,96088.00
2023-04-19T01:52:38.806Z,96086.00
2023-04-19T01:53:38.857Z,96084.00
2023-04-19T01:54:37.924Z,96084.00
2023-04-19T01:55:38.977Z,96082.00
2023-04-19T01:56:39.035Z,96082.00
2023-04-19T01:57:38.105Z,96078.00
2023-04-19T01:58:38.186Z,96080.00
2023-04-19T01:59:38.227Z,96074.00
2023-04-19T02:00:38.304Z,96074.00
2023-04-19T02:01:38.352Z,96072.00
2023-04-19T02:02:38.598Z,96072.00
2023-04-19T02:03:39.614Z,96072.00
2023-04-19T02:04:38.528Z,96072.00
2023-04-19T02:05:39.632Z,96072.00
2023-04-19T02:06:39.649Z,96076.00
2023-04-19T02:07:39.757Z,96072.00
2023-04-19T02:08:39.803Z,96072.00
2023-04-19T02:09:39.849Z,96074.00
2023-04-19T02:10:38.914Z,96072.00
2023-04-19T02:11:38.967Z,96072.00
2023-04-19T02:12:40.066Z,96070.00
2023-04-19T02:13:39.096Z,96070.00
2023-04-19T02:14:40.190Z,96070.00
2023-04-19T02:15:40.228Z,96070.00
2023-04-19T02:16:40.321Z,96066.00
2023-04-19T02:17:39.403Z,96068.00
2023-04-19T02:18:40.421Z,96064.00
2023-04-19T02:19:40.498Z,96064.00
2023-04-19T02:20:39.564Z,96062.00
2023-04-19T02:21:39.618Z,96060.00
2023-04-19T02:22:40.684Z,96062.00
2023-04-19T02:23:39.756Z,96058.00
2023-04-19T02:24:39.801Z,96058.00
2023-04-19T02:25:39.891Z,96058.00
2023-04-19T02:26:39.924Z,96054.00
2023-04-19T02:27:41.000Z,96056.00
2023-04-19T02:28:40.052Z,96054.00
2023-04-19T02:29:40.108Z,96056.00
2023-04-19T02:30:40.211Z,96056.00
2023-04-19T02:31:40.262Z,96054.00
2023-04-19T02:32:41.357Z,96058.00
2023-04-19T02:33:41.369Z,96054.00
2023-04-19T02:34:41.410Z,96054.00
2023-04-19T02:35:41.472Z,96058.00
2023-04-19T02:36:40.527Z,96056.00
2023-04-19T02:37:41.567Z,96056.00
2023-04-19T02:38:40.619Z,96056.00
2023-04-19T02:39:40.681Z,96058.00
2023-04-19T02:40:41.735Z,96056.00
2023-04-19T02:41:41.816Z,96058.00
2023-04-19T02:42:41.834Z,96056.00
2023-04-19T02:43:41.916Z,96058.00
2023-04-19T02:44:42.142Z,96054.00
2023-04-19T02:45:41.024Z,96058.00
2023-04-19T02:46:41.082Z,96054.00
2023-04-19T02:47:42.189Z,96052.00
2023-04-19T02:48:41.171Z,96050.00
2023-04-19T02:49:41.246Z,96050.00
2023-04-19T02:50:42.272Z,96050.00
2023-04-19T02:51:41.340Z,96054.00
2023-04-19T02:52:41.388Z,96050.00
2023-04-19T02:53:42.429Z,96054.00
2023-04-19T02:54:41.484Z,96052.00
2023-04-19T02:55:41.553Z,96050.00
2023-04-19T02:56:41.607Z,96050.00
2023-04-19T02:57:41.627Z,96050.00
2023-04-19T02:58:42.686Z,96048.00
2023-04-19T02:59:41.710Z,96052.00
2023-04-19T03:00:42.762Z,96050.00
2023-04-19T03:01:42.912Z,96050.00
2023-04-19T03:02:42.973Z,96047.00
2023-04-19T03:03:42.948Z,96047.00
2023-04-19T03:04:42.918Z,96048.00
2023-04-19T03:05:41.965Z,96047.00
2023-04-19T03:06:41.985Z,96045.00
2023-04-19T03:07:44.300Z,96048.00
2023-04-19T03:08:43.118Z,96045.00
2023-04-19T03:09:59.448Z,96043.00
2023-04-19T03:10:43.127Z,96043.00
2023-04-19T03:11:45.138Z,96043.00
2023-04-19T03:12:42.117Z,96043.00
2023-04-19T03:13:42.112Z,96041.00
2023-04-19T03:14:42.120Z,96041.00
2023-04-19T03:15:43.150Z,96043.00
2023-04-19T03:16:43.103Z,96041.00
2023-04-19T03:17:49.433Z,96037.00
2023-04-19T03:18:43.069Z,96041.00
2023-04-19T03:19:42.082Z,96039.00
2023-04-19T03:20:43.108Z,96037.00
2023-04-19T03:21:42.071Z,96035.00
2023-04-19T03:22:43.058Z,96035.00
2023-04-19T03:23:42.054Z,96033.00
2023-04-19T03:24:43.045Z,96037.00
2023-04-19T03:25:43.016Z,96035.00
2023-04-19T03:26:43.022Z,96031.00
2023-04-19T03:27:43.015Z,96029.00
2023-04-19T03:28:43.014Z,96035.00
2023-04-19T03:29:43.003Z,96031.00
2023-04-19T03:30:42.987Z,96029.00
2023-04-19T03:31:43.268Z,96031.00
2023-04-19T03:32:42.041Z,96031.00
2023-04-19T03:33:42.994Z,96031.00
2023-04-19T03:34:42.974Z,96029.00
2023-04-19T03:35:42.961Z,96027.00
2023-04-19T03:36:41.960Z,96029.00
2023-04-19T03:37:42.942Z,96027.00
2023-04-19T03:38:41.947Z,96027.00
2023-04-19T03:39:42.937Z,96025.00
2023-04-19T03:40:43.131Z,96025.00
2023-04-19T03:41:42.931Z,96023.00
2023-04-19T03:42:42.916Z,96025.00
2023-04-19T03:43:42.900Z,96023.00
2023-04-19T03:44:42.917Z,96021.00
2023-04-19T03:45:41.932Z,96021.00
2023-04-19T03:46:43.010Z,96025.00
2023-04-19T03:47:42.892Z,96025.00
2023-04-19T03:48:42.857Z,96023.00
2023-04-19T03:49:41.882Z,96023.00
2023-04-19T03:50:42.861Z,96021.00
2023-04-19T03:51:41.881Z,96021.00
2023-04-19T03:52:42.852Z,96025.00
2023-04-19T03:53:42.838Z,96025.00
2023-04-19T03:54:41.823Z,96027.00
2023-04-19T03:55:42.820Z,96019.00
2023-04-19T03:56:42.806Z,96025.00
2023-04-19T03:57:42.813Z,96021.00
2023-04-19T03:58:42.985Z,96021.00
2023-04-19T03:59:41.785Z,96021.00
2023-04-19T04:00:42.785Z,96019.00
2023-04-19T04:01:41.928Z,96021.00
2023-04-19T04:02:41.973Z,96021.00
2023-04-19T04:03:43.142Z,96019.00
2023-04-19T04:04:42.963Z,96025.00
2023-04-19T04:05:42.872Z,96019.00
2023-04-19T04:06:42.753Z,96017.00
2023-04-19T04:07:42.781Z,96019.00
2023-04-19T04:08:42.733Z,96023.00
2023-04-19T04:09:42.733Z,96017.00
2023-04-19T04:10:42.789Z,96019.00
2023-04-19T04:11:42.707Z,96017.00
2023-04-19T04:12:41.713Z,96019.00
2023-04-19T04:13:42.693Z,96019.00
2023-04-19T04:14:41.679Z,96019.00
2023-04-19T04:15:42.681Z,96019.00
2023-04-19T04:16:42.797Z,96019.00
2023-04-19T04:17:42.691Z,96015.00
2023-04-19T04:18:42.669Z,96017.00
2023-04-19T04:19:42.653Z,96017.00
2023-04-19T04:20:41.633Z,96019.00
2023-04-19T04:21:42.688Z,96019.00
2023-04-19T04:22:42.655Z,96019.00
2023-04-19T04:23:42.610Z,96019.00
2023-04-19T04:24:42.604Z,96021.00
2023-04-19T04:25:41.594Z,96019.00
2023-04-19T04:26:41.597Z,96021.00
2023-04-19T04:27:41.598Z,96021.00
2023-04-19T04:28:41.613Z,96019.00
2023-04-19T04:29:41.571Z,96019.00
2023-04-19T04:30:42.592Z,96021.00
2023-04-19T04:31:42.676Z,96019.00
2023-04-19T04:32:42.667Z,96019.00
2023-04-19T04:33:42.560Z,96019.00
2023-04-19T04:34:42.563Z,96019.00
2023-04-19T04:35:41.552Z,96021.00
2023-04-19T04:36:42.549Z,96021.00
2023-04-19T04:37:42.561Z,96021.00
2023-04-19T04:38:42.528Z,96019.00
2023-04-19T04:39:42.538Z,96019.00
2023-04-19T04:40:42.524Z,96017.00
2023-04-19T04:41:41.498Z,96017.00
2023-04-19T04:42:41.501Z,96017.00
2023-04-19T04:43:41.516Z,96017.00
2023-04-19T04:44:42.546Z,96015.00
2023-04-19T04:45:42.497Z,96017.00
2023-04-19T04:46:42.482Z,96017.00
2023-04-19T04:47:41.500Z,96019.00
2023-04-19T04:48:42.461Z,96023.00
2023-04-19T04:49:42.456Z,96019.00
2023-04-19T04:50:42.442Z,96023.00
2023-04-19T04:51:41.426Z,96023.00
2023-04-19T04:52:42.442Z,96023.00
2023-04-19T04:53:41.877Z,96025.00
2023-04-19T04:54:42.415Z,96023.00
2023-04-19T04:55:42.423Z,96021.00
2023-04-19T04:56:42.483Z,96023.00
2023-04-19T04:57:42.430Z,96021.00
2023-04-19T04:58:42.403Z,96021.00
2023-04-19T04:59:41.372Z,96019.00
2023-04-19T05:00:42.404Z,96021.00
2023-04-19T05:01:42.579Z,96021.00
2023-04-19T05:02:41.587Z,96019.00
2023-04-19T05:03:42.593Z,96019.00
2023-04-19T05:04:42.698Z,96021.00
2023-04-19T05:05:42.757Z,96021.00
2023-04-19T05:06:42.658Z,96019.00
2023-04-19T05:07:41.658Z,96019.00
2023-04-19T05:08:41.655Z,96021.00
2023-04-19T05:09:41.711Z,96019.00
2023-04-19T05:10:42.652Z,96015.00
2023-04-19T05:11:41.631Z,96019.00
2023-04-19T05:12:41.640Z,96017.00
2023-04-19T05:13:42.599Z,96017.00
2023-04-19T05:14:41.596Z,96021.00
2023-04-19T05:15:41.586Z,96023.00
2023-04-19T05:16:42.653Z,96021.00
2023-04-19T05:17:41.617Z,96019.00
2023-04-19T05:18:41.605Z,96021.00
2023-04-19T05:19:41.570Z,96019.00
2023-04-19T05:20:41.562Z,96021.00
2023-04-19T05:21:42.558Z,96017.00
2023-04-19T05:22:42.604Z,96019.00
2023-04-19T05:23:41.542Z,96015.00
2023-04-19T05:24:42.624Z,96017.00
2023-04-19T05:25:42.544Z,96017.00
2023-04-19T05:26:42.561Z,96017.00
2023-04-19T05:27:42.523Z,96015.00
2023-04-19T05:28:41.517Z,96021.00
2023-04-19T05:29:42.534Z,96017.00
2023-04-19T05:30:42.506Z,96015.00
2023-04-19T05:31:42.569Z,96019.00
2023-04-19T05:32:42.566Z,96017.00
2023-04-19T05:33:42.475Z,96015.00
2023-04-19T05:34:42.481Z,96017.00
2023-04-19T05:35:42.458Z,96015.00
2023-04-19T05:36:42.446Z,96011.00
2023-04-19T05:37:42.552Z,96011.00
2023-04-19T05:38:42.454Z,96009.00
2023-04-19T05:39:43.630Z,96013.00
2023-04-19T05:40:41.455Z,96009.00
2023-04-19T05:41:42.450Z,96011.00
2023-04-19T05:42:42.456Z,96011.00
2023-04-19T05:43:42.411Z,96013.00
2023-04-19T05:44:42.405Z,96013.00
2023-04-19T05:45:41.406Z,96015.00
2023-04-19T05:46:42.425Z,96011.00
2023-04-19T05:47:42.475Z,96013.00
2023-04-19T05:48:42.384Z,96011.00
2023-04-19T05:49:48.861Z,96011.00
2023-04-19T05:50:42.362Z,96009.00
2023-04-19T05:51:42.380Z,96013.00
2023-04-19T05:52:42.361Z,96013.00
2023-04-19T05:53:41.338Z,96011.00
2023-04-19T05:54:41.325Z,96013.00
2023-04-19T05:55:41.330Z,96013.00
2023-04-19T05:56:42.319Z,96009.00
2023-04-19T05:57:42.382Z,96013.00
2023-04-19T05:58:42.317Z,96015.00
2023-04-19T05:59:42.334Z,96015.00
2023-04-19T06:00:42.335Z,96015.00
2023-04-19T06:01:42.351Z,96011.00
2023-04-19T06:02:41.771Z,96017.00
2023-04-19T06:03:42.550Z,96013.00
2023-04-19T06:04:42.565Z,96017.00
2023-04-19T06:05:42.369Z,96017.00
2023-04-19T06:06:42.274Z,96013.00
2023-04-19T06:07:47.173Z,96013.00
2023-04-19T06:08:42.298Z,96011.00
2023-04-19T06:09:42.249Z,96013.00
2023-04-19T06:10:53.773Z,96011.00
2023-04-19T06:11:49.920Z,96013.00
2023-04-19T06:12:42.230Z,96011.00
2023-04-19T06:13:41.240Z,96011.00
2023-04-19T06:14:41.202Z,96009.00
2023-04-19T06:15:42.206Z,96009.00
2023-04-19T06:16:42.219Z,96013.00
2023-04-19T06:17:41.255Z,96013.00
2023-04-19T06:18:42.174Z,96015.00
2023-04-19T06:19:42.166Z,96015.00
2023-04-19T06:20:42.163Z,96011.00
2023-04-19T06:21:42.168Z,96013.00
2023-04-19T06:22:41.160Z,96011.00
2023-04-19T06:23:41.148Z,96011.00
2023-04-19T06:24:41.131Z,96011.00
2023-04-19T06:25:42.152Z,96013.00
2023-04-19T06:26:42.120Z,96009.00
2023-04-19T06:27:42.136Z,96011.00
2023-04-19T06:28:42.105Z,96007.00
2023-04-19T06:29:42.140Z,96007.00
2023-04-19T06:30:42.118Z,96007.00
2023-04-19T06:31:41.141Z,96009.00
2023-04-19T06:32:42.145Z,96009.00
2023-04-19T06:33:41.083Z,96009.00
2023-04-19T06:34:42.092Z,96009.00
2023-04-19T06:35:42.068Z,96011.00
2023-04-19T06:36:42.077Z,96013.00
2023-04-19T06:37:42.063Z,96009.00
2023-04-19T06:38:41.060Z,96011.00
2023-04-19T06:39:42.034Z,96015.00
2023-04-19T06:40:42.049Z,96017.00
2023-04-19T06:41:42.038Z,96017.00
2023-04-19T06:42:41.030Z,96017.00
2023-04-19T06:43:42.011Z,96015.00
2023-04-19T06:44:41.006Z,96015.00
2023-04-19T06:45:42.052Z,96015.00
2023-04-19T06:46:42.012Z,96015.00
2023-04-19T06:47:42.033Z,96017.00
2023-04-19T06:48:41.103Z,96015.00
2023-04-19T06:49:42.117Z,96015.00
2023-04-19T06:50:41.162Z,96015.00
2023-04-19T06:51:41.203Z,96017.00
2023-04-19T06:52:42.634Z,96017.00
2023-04-19T06:53:42.302Z,96015.00
2023-04-19T06:54:42.325Z,96013.00
2023-04-19T06:55:42.404Z,96019.00
2023-04-19T06:56:42.440Z,96013.00
2023-04-19T06:57:42.620Z,96017.00
2023-04-19T06:58:41.581Z,96015.00
2023-04-19T06:59:41.643Z,96013.00
2023-04-19T07:00:42.670Z,96015.00
2023-04-19T07:01:42.804Z,96013.00
2023-04-19T07:02:42.984Z,96011.00
2023-04-19T07:03:42.939Z,96011.00
2023-04-19T07:04:41.934Z,96011.00
2023-04-19T07:05:42.907Z,96007.00
2023-04-19T07:06:41.968Z,96009.00
2023-04-19T07:07:43.026Z,96007.00
2023-04-19T07:08:49.779Z,96005.00
2023-04-19T07:09:43.064Z,96003.00
2023-04-19T07:10:42.033Z,96003.00
2023-04-19T07:11:43.061Z,96003.00
2023-04-19T07:12:43.034Z,95998.00
2023-04-19T07:13:42.030Z,95998.00
2023-04-19T07:14:43.035Z,95998.00
2023-04-19T07:15:42.056Z,95996.00
2023-04-19T07:16:42.007Z,95996.00
2023-04-19T07:17:42.033Z,95998.00
2023-04-19T07:18:43.061Z,95994.00
2023-04-19T07:19:43.107Z,95994.00
2023-04-19T07:20:43.177Z,95992.00
2023-04-19T07:21:43.224Z,95992.00
2023-04-19T07:22:42.267Z,95990.00
2023-04-19T07:23:42.319Z,95990.00
2023-04-19T07:24:43.359Z,95986.00
2023-04-19T07:25:42.390Z,95988.00
2023-04-19T07:26:42.440Z,95990.00
2023-04-19T07:27:43.476Z,95988.00
2023-04-19T07:28:43.538Z,95988.00
2023-04-19T07:29:43.597Z,95984.00
2023-04-19T07:30:42.626Z,95984.00
2023-04-19T07:31:42.706Z,95984.00
2023-04-19T07:32:42.812Z,95986.00
2023-04-19T07:33:43.864Z,95982.00
2023-04-19T07:34:43.794Z,95986.00
2023-04-19T07:35:44.651Z,95986.00
2023-04-19T07:36:43.860Z,95984.00
2023-04-19T07:37:42.888Z,95982.00
2023-04-19T07:38:42.931Z,95984.00
2023-04-19T07:39:43.957Z,95984.00
2023-04-19T07:40:43.998Z,95986.00
2023-04-19T07:41:44.040Z,95982.00
2023-04-19T07:42:43.091Z,95982.00
2023-04-19T07:43:44.132Z,95984.00
2023-04-19T07:44:43.176Z,95982.00
2023-04-19T07:45:44.216Z,95980.00
2023-04-19T07:46:44.333Z,95982.00
2023-04-19T07:47:44.671Z,95982.00
2023-04-19T07:48:43.355Z,95982.00
2023-04-19T07:49:43.403Z,95982.00
2023-04-19T07:50:43.418Z,95978.00
2023-04-19T07:51:43.457Z,95978.00
2023-04-19T07:52:44.629Z,95976.00
2023-04-19T07:53:44.536Z,95978.00
2023-04-19T07:54:44.596Z,95976.00
2023-04-19T07:55:44.628Z,95980.00
2023-04-19T07:56:44.678Z,95976.00
2023-04-19T07:57:44.714Z,95974.00
2023-04-19T07:58:46.740Z,95982.00
2023-04-19T07:59:44.779Z,95978.00
2023-04-19T08:00:44.790Z,95980.00
2023-04-19T08:01:44.820Z,95976.00
2023-04-19T08:02:43.886Z,95976.00
2023-04-19T08:03:44.952Z,95976.00
2023-04-19T08:04:44.859Z,95978.00
2023-04-19T08:05:44.913Z,95976.00
2023-04-19T08:06:43.739Z,95978.00
2023-04-19T08:07:44.759Z,95972.00
2023-04-19T08:08:44.737Z,95972.00
2023-04-19T08:09:44.811Z,95974.00
2023-04-19T08:10:44.692Z,95972.00
2023-04-19T08:11:44.697Z,95972.00
2023-04-19T08:12:53.566Z,95972.00
2023-04-19T08:13:55.073Z,95972.00
2023-04-19T08:14:59.143Z,95972.00
2023-04-19T08:17:19.545Z,95972.00
2023-04-19T08:17:44.919Z,95974.00
2023-04-19T08:18:43.651Z,95972.00
2023-04-19T08:19:44.647Z,95972.00
2023-04-19T08:20:44.643Z,95970.00
2023-04-19T08:21:44.729Z,95972.00
2023-04-19T08:22:44.642Z,95972.00
2023-04-19T08:23:48.356Z,95972.00
2023-04-19T08:24:43.610Z,95968.00
2023-04-19T08:25:44.594Z,95970.00
2023-04-19T08:26:44.621Z,95972.00
2023-04-19T08:27:44.585Z,95970.00
2023-04-19T08:28:44.596Z,95968.00
2023-04-19T08:29:44.569Z,95968.00
2023-04-19T08:30:44.584Z,95968.00
2023-04-19T08:31:43.588Z,95968.00
2023-04-19T08:32:43.618Z,95966.00
2023-04-19T08:33:44.555Z,95966.00
2023-04-19T08:34:44.537Z,95968.00
2023-04-19T08:35:43.541Z,95966.00
2023-04-19T08:36:51.949Z,95970.00
2023-04-19T08:37:44.674Z,95964.00
2023-04-19T08:38:46.671Z,95964.00
2023-04-19T08:39:44.772Z,95966.00
2023-04-19T08:40:44.812Z,95962.00
2023-04-19T08:41:48.015Z,95960.00
2023-04-19T08:42:45.146Z,95962.00
2023-04-19T08:43:44.826Z,95964.00
2023-04-19T08:45:43.835Z,95964.00
2023-04-19T08:46:44.794Z,95962.00
2023-04-19T08:47:58.773Z,95960.00
2023-04-19T08:48:44.945Z,95964.00
2023-04-19T08:49:44.825Z,95960.00
2023-04-19T08:51:00.290Z,95960.00
2023-04-19T08:51:44.765Z,95960.00
2023-04-19T08:52:54.770Z,95958.00
2023-04-19T08:53:44.784Z,95958.00
2023-04-19T08:54:43.744Z,95958.00
2023-04-19T08:55:54.868Z,95956.00
2023-04-19T08:56:44.761Z,95954.00
2023-04-19T08:57:45.142Z,95956.00
2023-04-19T08:59:43.896Z,95951.00
2023-04-19T09:00:43.934Z,95949.00
2023-04-19T09:01:45.221Z,95949.00
2023-04-19T09:02:47.585Z,95949.00
2023-04-19T09:04:00.201Z,95947.00
2023-04-19T09:04:45.228Z,95947.00
2023-04-19T09:05:44.280Z,95945.00
2023-04-19T09:06:45.051Z,95947.00
2023-04-19T09:07:44.997Z,95943.00
2023-04-19T09:08:45.003Z,95945.00
2023-04-19T09:09:55.979Z,95941.00
2023-04-19T09:10:44.983Z,95943.00
2023-04-19T09:11:44.987Z,95941.00
2023-04-19T09:12:43.970Z,95937.00
2023-04-19T09:13:44.998Z,95937.00
2023-04-19T09:14:47.549Z,95937.00
2023-04-19T09:15:44.991Z,95935.00
2023-04-19T09:16:44.930Z,95935.00
2023-04-19T09:17:44.969Z,95933.00
2023-04-19T09:18:56.274Z,95933.00
2023-04-19T09:19:44.966Z,95933.00
2023-04-19T09:20:43.929Z,95931.00
2023-04-19T09:21:44.917Z,95933.00
2023-04-19T09:22:43.907Z,95929.00
2023-04-19T09:23:44.905Z,95927.00
2023-04-19T09:26:43.871Z,95927.00
2023-04-19T09:27:44.877Z,95927.00
2023-04-19T09:28:44.864Z,95925.00
2023-04-19T09:29:44.839Z,95927.00
2023-04-19T09:30:55.106Z,95929.00
2023-04-19T09:31:51.411Z,95927.00
2023-04-19T09:32:44.918Z,95925.00
2023-04-19T09:33:44.984Z,95925.00
2023-04-19T09:34:44.819Z,95925.00
2023-04-19T09:35:44.844Z,95923.00
2023-04-19T09:36:44.812Z,95915.00
2023-04-19T09:38:44.644Z,95911.00
2023-04-19T09:39:44.780Z,95913.00
2023-04-19T09:40:44.807Z,95909.00
2023-04-19T09:41:43.850Z,95907.00
2023-04-19T09:45:20.912Z,95903.00
2023-04-19T09:45:44.740Z,95901.00
2023-04-19T09:46:44.788Z,95903.00
2023-04-19T09:47:44.781Z,95898.00
2023-04-19T09:48:44.155Z,95898.00
2023-04-19T09:49:49.098Z,95898.00
2023-04-19T09:50:54.924Z,95896.00
2023-04-19T09:51:44.715Z,95898.00
2023-04-19T09:52:43.710Z,95894.00
2023-04-19T09:53:45.178Z,95896.00
2023-04-19T09:54:43.702Z,95898.00
2023-04-19T09:55:57.196Z,95894.00
2023-04-19T09:56:44.699Z,95894.00
2023-04-19T09:57:44.694Z,95892.00
2023-04-19T09:58:51.589Z,95894.00
2023-04-19T09:59:44.683Z,95892.00
2023-04-19T10:00:50.054Z,95890.00
2023-04-19T10:01:44.723Z,95892.00
2023-04-19T10:02:43.724Z,95888.00
2023-04-19T10:03:43.845Z,95890.00
2023-04-19T10:05:43.714Z,95886.00
2023-04-19T10:07:06.955Z,95884.00
2023-04-19T10:07:44.798Z,95888.00
2023-04-19T10:08:44.621Z,95886.00
2023-04-19T10:09:52.872Z,95886.00
2023-04-19T10:10:45.538Z,95884.00
2023-04-19T10:11:47.900Z,95880.00
2023-04-19T10:13:06.888Z,95880.00
2023-04-19T10:13:44.635Z,95882.00
2023-04-19T10:14:43.575Z,95882.00
2023-04-19T10:15:51.317Z,95876.00
2023-04-19T10:16:44.591Z,95878.00
2023-04-19T10:17:44.559Z,95878.00
2023-04-19T10:18:44.532Z,95880.00
2023-04-19T10:19:43.523Z,95878.00
2023-04-19T10:20:44.522Z,95878.00
2023-04-19T10:21:43.523Z,95874.00
2023-04-19T10:22:44.517Z,95874.00
2023-04-19T10:23:44.525Z,95870.00
2023-04-19T10:24:44.925Z,95872.00
2023-04-19T10:25:44.502Z,95870.00
2023-04-19T10:26:44.480Z,95870.00
2023-04-19T10:27:47.489Z,95868.00
2023-04-19T10:28:44.477Z,95868.00
2023-04-19T10:29:43.656Z,95862.00
2023-04-19T10:30:44.575Z,95864.00
2023-04-19T10:31:44.546Z,95864.00
2023-04-19T10:32:43.512Z,95864.00
2023-04-19T10:33:43.469Z,95860.00
2023-04-19T10:34:44.446Z,95858.00
2023-04-19T10:35:44.426Z,95858.00
2023-04-19T10:36:43.424Z,95856.00
2023-04-19T10:37:44.430Z,95854.00
2023-04-19T10:38:43.534Z,95853.00
2023-04-19T10:39:43.427Z,95853.00
2023-04-19T10:40:44.397Z,95853.00
2023-04-19T10:41:44.394Z,95853.00
2023-04-19T10:42:44.393Z,95847.00
2023-04-19T10:43:43.674Z,95845.00
2023-04-19T10:44:43.363Z,95849.00
2023-04-19T10:45:44.420Z,95845.00
2023-04-19T10:46:43.355Z,95843.00
2023-04-19T10:47:44.401Z,95841.00
2023-04-19T10:48:44.706Z,95835.00
2023-04-19T10:49:43.320Z,95833.00
2023-04-19T10:50:44.325Z,95833.00
2023-04-19T10:51:43.323Z,95831.00
2023-04-19T10:52:44.332Z,95831.00
2023-04-19T10:53:43.689Z,95829.00
2023-04-19T10:54:44.291Z,95827.00
2023-04-19T10:55:43.284Z,95821.00
2023-04-19T10:56:43.269Z,95819.00
2023-04-19T10:57:43.273Z,95817.00
2023-04-19T10:58:43.272Z,95817.00
2023-04-19T10:59:44.256Z,95815.00
2023-04-19T11:00:43.246Z,95813.00
2023-04-19T11:01:44.319Z,95811.00
2023-04-19T11:02:43.404Z,95811.00
2023-04-19T11:03:43.500Z,95811.00
2023-04-19T11:04:44.311Z,95811.00
2023-04-19T11:05:44.216Z,95809.00
2023-04-19T11:06:43.249Z,95807.00
2023-04-19T11:07:44.280Z,95801.00
2023-04-19T11:08:44.224Z,95805.00
2023-04-19T11:09:43.210Z,95807.00
2023-04-19T11:10:44.184Z,95803.00
2023-04-19T11:11:43.202Z,95801.00
2023-04-19T11:12:44.194Z,95799.00
2023-04-19T11:13:44.174Z,95798.00
2023-04-19T11:14:44.213Z,95798.00
2023-04-19T11:15:44.317Z,95796.00
2023-04-19T11:16:46.040Z,95794.00
2023-04-19T11:17:44.389Z,95796.00
2023-04-19T11:18:44.339Z,95794.00
2023-04-19T11:19:43.298Z,95792.00
2023-04-19T11:20:43.291Z,95794.00
2023-04-19T11:21:44.288Z,95794.00
2023-04-19T11:22:44.267Z,95796.00
2023-04-19T11:23:44.308Z,95794.00
2023-04-19T11:24:44.253Z,95794.00
2023-04-19T11:25:44.262Z,95799.00
2023-04-19T11:26:44.247Z,95792.00
2023-04-19T11:27:44.255Z,95792.00
2023-04-19T11:28:44.268Z,95790.00
2023-04-19T11:29:44.258Z,95792.00
2023-04-19T11:30:44.230Z,95788.00
2023-04-19T11:31:44.305Z,95786.00
2023-04-19T11:32:44.229Z,95790.00
2023-04-19T11:33:43.247Z,95788.00
2023-04-19T11:34:44.200Z,95784.00
2023-04-19T11:35:44.203Z,95782.00
2023-04-19T11:36:43.196Z,95782.00
2023-04-19T11:37:43.191Z,95782.00
2023-04-19T11:38:44.159Z,95782.00
2023-04-19T11:39:43.210Z,95782.00
2023-04-19T11:40:43.166Z,95780.00
2023-04-19T11:41:43.168Z,95782.00
2023-04-19T11:42:44.151Z,95780.00
2023-04-19T11:43:44.135Z,95780.00
2023-04-19T11:44:44.149Z,95778.00
2023-04-19T11:45:43.134Z,95778.00
2023-04-19T11:46:43.232Z,95776.00
2023-04-19T11:47:44.265Z,95776.00
2023-04-19T11:48:43.271Z,95778.00
2023-04-19T11:49:43.356Z,95774.00
2023-04-19T11:50:43.385Z,95776.00
2023-04-19T11:51:44.440Z,95776.00
2023-04-19T11:52:43.500Z,95774.00
2023-04-19T11:53:44.576Z,95774.00